sensor_id;sensor_type;location;lat;lon;timestamp;P1;durP1;ratioP1;P2;durP2;ratioP2
28483;SDS011;15704;48.834;8.736;2023-10-19T00:00:57;3.10;;;1.73;;
28483;SDS011;15704;48.834;8.736;2023-10-19T00:03:26;4.85;;;2.00;;
28483;SDS011;15704;48.834;8.736;2023-10-19T00:05:55;4.97;;;2.38;;
28483;SDS011;15704;48.834;8.736;2023-10-19T00:08:22;6.57;;;2.05;;
28483;SDS011;15704;48.834;8.736;2023-10-19T00:10:50;5.20;;;2.10;;
28483;SDS011;15704;48.834;8.736;2023-10-19T00:13:30;3.85;;;2.30;;
28483;SDS011;15704;48.834;8.736;2023-10-19T00:15:58;3.00;;;2.15;;
28483;SDS011;15704;48.834;8.736;2023-10-19T00:18:25;5.82;;;3.45;;
28483;SDS011;15704;48.834;8.736;2023-10-19T00:20:52;5.07;;;2.25;;
28483;SDS011;15704;48.834;8.736;2023-10-19T00:23:26;5.80;;;2.25;;
28483;SDS011;15704;48.834;8.736;2023-10-19T00:26:00;4.45;;;2.25;;
28483;SDS011;15704;48.834;8.736;2023-10-19T00:28:35;3.45;;;2.33;;
28483;SDS011;15704;48.834;8.736;2023-10-19T00:31:04;5.32;;;2.90;;
28483;SDS011;15704;48.834;8.736;2023-10-19T00:33:34;11.13;;;2.42;;
28483;SDS011;15704;48.834;8.736;2023-10-19T00:36:05;5.05;;;2.22;;
28483;SDS011;15704;48.834;8.736;2023-10-19T00:38:40;4.68;;;2.40;;
28483;SDS011;15704;48.834;8.736;2023-10-19T00:41:20;4.78;;;2.30;;
28483;SDS011;15704;48.834;8.736;2023-10-19T00:43:58;5.47;;;2.25;;
28483;SDS011;15704;48.834;8.736;2023-10-19T00:46:38;6.07;;;3.13;;
28483;SDS011;15704;48.834;8.736;2023-10-19T00:49:09;7.38;;;2.75;;
28483;SDS011;15704;48.834;8.736;2023-10-19T00:51:39;4.00;;;2.60;;
28483;SDS011;15704;48.834;8.736;2023-10-19T00:54:33;4.70;;;2.25;;
28483;SDS011;15704;48.834;8.736;2023-10-19T00:57:08;5.38;;;2.40;;
28483;SDS011;15704;48.834;8.736;2023-10-19T00:59:38;7.20;;;2.65;;
28483;SDS011;15704;48.834;8.736;2023-10-19T01:02:13;11.63;;;2.50;;
28483;SDS011;15704;48.834;8.736;2023-10-19T01:04:45;5.22;;;2.70;;
28483;SDS011;15704;48.834;8.736;2023-10-19T01:07:17;3.78;;;2.30;;
28483;SDS011;15704;48.834;8.736;2023-10-19T01:09:49;8.95;;;2.72;;
28483;SDS011;15704;48.834;8.736;2023-10-19T01:12:19;3.20;;;2.47;;
28483;SDS011;15704;48.834;8.736;2023-10-19T01:17:34;7.18;;;2.67;;
28483;SDS011;15704;48.834;8.736;2023-10-19T01:20:08;5.32;;;2.47;;
28483;SDS011;15704;48.834;8.736;2023-10-19T01:23:01;5.60;;;2.90;;
28483;SDS011;15704;48.834;8.736;2023-10-19T01:28:32;7.45;;;3.17;;
28483;SDS011;15704;48.834;8.736;2023-10-19T01:31:09;6.88;;;2.92;;
28483;SDS011;15704;48.834;8.736;2023-10-19T01:33:48;6.25;;;2.83;;
28483;SDS011;15704;48.834;8.736;2023-10-19T01:36:16;8.38;;;2.65;;
28483;SDS011;15704;48.834;8.736;2023-10-19T01:38:43;5.22;;;3.00;;
28483;SDS011;15704;48.834;8.736;2023-10-19T01:41:10;4.85;;;2.53;;
28483;SDS011;15704;48.834;8.736;2023-10-19T01:43:43;7.25;;;3.10;;
28483;SDS011;15704;48.834;8.736;2023-10-19T01:46:11;8.43;;;2.55;;
28483;SDS011;15704;48.834;8.736;2023-10-19T01:48:40;10.88;;;3.05;;
28483;SDS011;15704;48.834;8.736;2023-10-19T01:51:08;5.03;;;3.17;;
28483;SDS011;15704;48.834;8.736;2023-10-19T01:53:40;5.53;;;3.10;;
28483;SDS011;15704;48.834;8.736;2023-10-19T01:56:11;8.02;;;3.17;;
28483;SDS011;15704;48.834;8.736;2023-10-19T01:58:39;6.10;;;2.78;;
28483;SDS011;15704;48.834;8.736;2023-10-19T02:01:07;7.47;;;2.95;;
28483;SDS011;15704;48.834;8.736;2023-10-19T02:03:38;10.20;;;3.55;;
28483;SDS011;15704;48.834;8.736;2023-10-19T02:06:09;9.07;;;2.83;;
28483;SDS011;15704;48.834;8.736;2023-10-19T02:08:46;7.38;;;3.30;;
28483;SDS011;15704;48.834;8.736;2023-10-19T02:11:21;6.35;;;4.40;;
28483;SDS011;15704;48.834;8.736;2023-10-19T02:13:49;5.22;;;3.47;;
28483;SDS011;15704;48.834;8.736;2023-10-19T02:16:21;15.40;;;6.30;;
28483;SDS011;15704;48.834;8.736;2023-10-19T02:18:49;5.72;;;3.30;;
28483;SDS011;15704;48.834;8.736;2023-10-19T02:21:16;7.68;;;2.50;;
28483;SDS011;15704;48.834;8.736;2023-10-19T02:23:56;4.38;;;3.05;;
28483;SDS011;15704;48.834;8.736;2023-10-19T02:26:23;5.43;;;2.97;;
28483;SDS011;15704;48.834;8.736;2023-10-19T02:28:53;5.03;;;3.17;;
28483;SDS011;15704;48.834;8.736;2023-10-19T02:31:22;5.80;;;3.03;;
28483;SDS011;15704;48.834;8.736;2023-10-19T02:33:52;7.15;;;3.25;;
28483;SDS011;15704;48.834;8.736;2023-10-19T02:36:25;8.68;;;3.35;;
28483;SDS011;15704;48.834;8.736;2023-10-19T02:39:02;7.90;;;3.70;;
28483;SDS011;15704;48.834;8.736;2023-10-19T02:41:46;5.90;;;3.45;;
28483;SDS011;15704;48.834;8.736;2023-10-19T02:44:15;5.82;;;3.08;;
28483;SDS011;15704;48.834;8.736;2023-10-19T02:46:47;6.03;;;2.72;;
28483;SDS011;15704;48.834;8.736;2023-10-19T02:49:20;14.77;;;6.00;;
28483;SDS011;15704;48.834;8.736;2023-10-19T02:51:48;13.57;;;6.07;;
28483;SDS011;15704;48.834;8.736;2023-10-19T02:54:17;11.95;;;5.25;;
28483;SDS011;15704;48.834;8.736;2023-10-19T02:56:53;12.30;;;6.70;;
28483;SDS011;15704;48.834;8.736;2023-10-19T02:59:25;10.93;;;6.63;;
28483;SDS011;15704;48.834;8.736;2023-10-19T03:01:55;14.02;;;6.75;;
28483;SDS011;15704;48.834;8.736;2023-10-19T03:04:44;7.63;;;4.93;;
28483;SDS011;15704;48.834;8.736;2023-10-19T03:07:12;10.45;;;5.40;;
28483;SDS011;15704;48.834;8.736;2023-10-19T03:09:39;9.05;;;4.93;;
28483;SDS011;15704;48.834;8.736;2023-10-19T03:12:15;9.25;;;4.00;;
28483;SDS011;15704;48.834;8.736;2023-10-19T03:14:43;11.23;;;3.70;;
28483;SDS011;15704;48.834;8.736;2023-10-19T03:17:12;7.80;;;3.67;;
28483;SDS011;15704;48.834;8.736;2023-10-19T03:19:39;4.90;;;2.83;;
28483;SDS011;15704;48.834;8.736;2023-10-19T03:22:06;10.25;;;3.83;;
28483;SDS011;15704;48.834;8.736;2023-10-19T03:24:35;5.32;;;3.63;;
28483;SDS011;15704;48.834;8.736;2023-10-19T03:27:03;16.08;;;4.55;;
28483;SDS011;15704;48.834;8.736;2023-10-19T03:30:04;8.43;;;3.33;;
28483;SDS011;15704;48.834;8.736;2023-10-19T03:32:31;7.45;;;3.67;;
28483;SDS011;15704;48.834;8.736;2023-10-19T03:35:02;11.05;;;4.28;;
28483;SDS011;15704;48.834;8.736;2023-10-19T03:37:30;12.05;;;4.15;;
28483;SDS011;15704;48.834;8.736;2023-10-19T03:39:58;10.70;;;4.45;;
28483;SDS011;15704;48.834;8.736;2023-10-19T03:42:25;8.40;;;4.38;;
28483;SDS011;15704;48.834;8.736;2023-10-19T03:44:58;8.77;;;4.63;;
28483;SDS011;15704;48.834;8.736;2023-10-19T03:47:28;11.10;;;4.45;;
28483;SDS011;15704;48.834;8.736;2023-10-19T03:50:02;12.93;;;7.78;;
28483;SDS011;15704;48.834;8.736;2023-10-19T03:57:45;7.95;;;4.63;;
28483;SDS011;15704;48.834;8.736;2023-10-19T04:00:21;8.10;;;4.20;;
28483;SDS011;15704;48.834;8.736;2023-10-19T04:02:52;11.07;;;3.88;;
28483;SDS011;15704;48.834;8.736;2023-10-19T04:05:20;9.88;;;4.13;;
28483;SDS011;15704;48.834;8.736;2023-10-19T04:07:49;9.00;;;4.55;;
28483;SDS011;15704;48.834;8.736;2023-10-19T04:10:23;7.60;;;4.32;;
28483;SDS011;15704;48.834;8.736;2023-10-19T04:13:05;9.85;;;5.22;;
28483;SDS011;15704;48.834;8.736;2023-10-19T04:15:39;9.77;;;4.68;;
28483;SDS011;15704;48.834;8.736;2023-10-19T04:18:07;11.75;;;5.35;;
28483;SDS011;15704;48.834;8.736;2023-10-19T04:20:38;12.68;;;5.75;;
28483;SDS011;15704;48.834;8.736;2023-10-19T04:23:25;13.57;;;5.25;;
28483;SDS011;15704;48.834;8.736;2023-10-19T04:25:54;11.05;;;4.72;;
28483;SDS011;15704;48.834;8.736;2023-10-19T04:28:24;13.67;;;5.80;;
28483;SDS011;15704;48.834;8.736;2023-10-19T04:30:57;14.60;;;5.18;;
28483;SDS011;15704;48.834;8.736;2023-10-19T04:33:30;9.13;;;5.93;;
28483;SDS011;15704;48.834;8.736;2023-10-19T04:35:58;10.18;;;5.38;;
28483;SDS011;15704;48.834;8.736;2023-10-19T04:38:26;9.38;;;5.32;;
28483;SDS011;15704;48.834;8.736;2023-10-19T04:41:06;14.95;;;7.18;;
28483;SDS011;15704;48.834;8.736;2023-10-19T04:43:34;12.38;;;6.45;;
28483;SDS011;15704;48.834;8.736;2023-10-19T04:46:07;12.00;;;5.68;;
28483;SDS011;15704;48.834;8.736;2023-10-19T04:48:39;9.32;;;5.15;;
28483;SDS011;15704;48.834;8.736;2023-10-19T04:51:08;9.23;;;4.75;;
28483;SDS011;15704;48.834;8.736;2023-10-19T04:53:36;10.20;;;4.95;;
28483;SDS011;15704;48.834;8.736;2023-10-19T04:56:04;11.05;;;4.95;;
28483;SDS011;15704;48.834;8.736;2023-10-19T04:58:31;9.80;;;4.68;;
28483;SDS011;15704;48.834;8.736;2023-10-19T05:00:58;9.02;;;4.93;;
28483;SDS011;15704;48.834;8.736;2023-10-19T05:03:25;8.95;;;4.85;;
28483;SDS011;15704;48.834;8.736;2023-10-19T05:05:54;8.25;;;4.70;;
28483;SDS011;15704;48.834;8.736;2023-10-19T05:08:23;10.35;;;5.10;;
28483;SDS011;15704;48.834;8.736;2023-10-19T05:10:52;11.93;;;5.68;;
28483;SDS011;15704;48.834;8.736;2023-10-19T05:13:21;13.25;;;5.88;;
28483;SDS011;15704;48.834;8.736;2023-10-19T05:15:49;13.05;;;5.55;;
28483;SDS011;15704;48.834;8.736;2023-10-19T05:18:16;10.18;;;5.68;;
28483;SDS011;15704;48.834;8.736;2023-10-19T05:20:43;10.45;;;5.60;;
28483;SDS011;15704;48.834;8.736;2023-10-19T05:23:10;13.93;;;5.53;;
28483;SDS011;15704;48.834;8.736;2023-10-19T05:25:36;14.85;;;5.57;;
28483;SDS011;15704;48.834;8.736;2023-10-19T05:28:06;11.05;;;5.30;;
28483;SDS011;15704;48.834;8.736;2023-10-19T05:30:34;15.43;;;5.88;;
28483;SDS011;15704;48.834;8.736;2023-10-19T05:33:02;9.18;;;5.40;;
28483;SDS011;15704;48.834;8.736;2023-10-19T05:35:29;15.18;;;5.60;;
28483;SDS011;15704;48.834;8.736;2023-10-19T05:37:56;8.55;;;5.63;;
28483;SDS011;15704;48.834;8.736;2023-10-19T05:40:26;12.90;;;5.57;;
28483;SDS011;15704;48.834;8.736;2023-10-19T05:42:57;12.80;;;4.97;;
28483;SDS011;15704;48.834;8.736;2023-10-19T05:45:24;11.95;;;5.40;;
28483;SDS011;15704;48.834;8.736;2023-10-19T05:47:52;8.45;;;5.20;;
28483;SDS011;15704;48.834;8.736;2023-10-19T05:50:19;9.50;;;5.25;;
28483;SDS011;15704;48.834;8.736;2023-10-19T05:52:46;11.50;;;6.15;;
28483;SDS011;15704;48.834;8.736;2023-10-19T05:55:15;11.65;;;5.90;;
28483;SDS011;15704;48.834;8.736;2023-10-19T05:57:45;11.95;;;5.18;;
28483;SDS011;15704;48.834;8.736;2023-10-19T06:00:11;13.45;;;5.85;;
28483;SDS011;15704;48.834;8.736;2023-10-19T06:05:12;10.40;;;5.40;;
28483;SDS011;15704;48.834;8.736;2023-10-19T06:07:45;13.85;;;5.88;;
28483;SDS011;15704;48.834;8.736;2023-10-19T06:10:13;13.20;;;5.50;;
28483;SDS011;15704;48.834;8.736;2023-10-19T06:12:42;9.38;;;4.97;;
28483;SDS011;15704;48.834;8.736;2023-10-19T06:15:17;7.85;;;4.90;;
28483;SDS011;15704;48.834;8.736;2023-10-19T06:17:47;9.73;;;5.05;;
28483;SDS011;15704;48.834;8.736;2023-10-19T06:20:15;8.95;;;4.28;;
28483;SDS011;15704;48.834;8.736;2023-10-19T06:22:55;8.93;;;4.40;;
28483;SDS011;15704;48.834;8.736;2023-10-19T06:25:27;8.55;;;3.92;;
28483;SDS011;15704;48.834;8.736;2023-10-19T06:27:54;11.77;;;3.70;;
28483;SDS011;15704;48.834;8.736;2023-10-19T06:30:24;9.68;;;4.43;;
28483;SDS011;15704;48.834;8.736;2023-10-19T06:32:52;7.57;;;3.00;;
28483;SDS011;15704;48.834;8.736;2023-10-19T06:35:21;12.38;;;3.40;;
28483;SDS011;15704;48.834;8.736;2023-10-19T06:37:48;5.05;;;3.58;;
28483;SDS011;15704;48.834;8.736;2023-10-19T06:40:18;15.45;;;3.42;;
28483;SDS011;15704;48.834;8.736;2023-10-19T06:42:45;7.70;;;3.42;;
28483;SDS011;15704;48.834;8.736;2023-10-19T06:45:13;5.00;;;3.33;;
28483;SDS011;15704;48.834;8.736;2023-10-19T06:47:41;4.47;;;3.00;;
28483;SDS011;15704;48.834;8.736;2023-10-19T06:50:09;6.22;;;3.25;;
28483;SDS011;15704;48.834;8.736;2023-10-19T06:52:37;5.47;;;3.30;;
28483;SDS011;15704;48.834;8.736;2023-10-19T06:55:04;10.15;;;3.10;;
28483;SDS011;15704;48.834;8.736;2023-10-19T06:57:40;5.30;;;2.72;;
28483;SDS011;15704;48.834;8.736;2023-10-19T07:00:12;8.43;;;3.50;;
28483;SDS011;15704;48.834;8.736;2023-10-19T07:02:41;7.53;;;2.97;;
28483;SDS011;15704;48.834;8.736;2023-10-19T07:05:10;4.40;;;2.90;;
28483;SDS011;15704;48.834;8.736;2023-10-19T07:07:39;7.97;;;3.17;;
28483;SDS011;15704;48.834;8.736;2023-10-19T07:10:07;5.30;;;3.40;;
28483;SDS011;15704;48.834;8.736;2023-10-19T07:12:36;6.80;;;3.22;;
28483;SDS011;15704;48.834;8.736;2023-10-19T07:15:06;5.88;;;3.33;;
28483;SDS011;15704;48.834;8.736;2023-10-19T07:17:34;6.88;;;3.60;;
28483;SDS011;15704;48.834;8.736;2023-10-19T07:20:05;13.85;;;2.95;;
28483;SDS011;15704;48.834;8.736;2023-10-19T07:22:32;9.90;;;3.60;;
28483;SDS011;15704;48.834;8.736;2023-10-19T07:25:00;8.50;;;4.32;;
28483;SDS011;15704;48.834;8.736;2023-10-19T07:27:27;13.27;;;6.10;;
28483;SDS011;15704;48.834;8.736;2023-10-19T07:30:03;9.63;;;5.65;;
28483;SDS011;15704;48.834;8.736;2023-10-19T07:35:02;10.82;;;6.30;;
28483;SDS011;15704;48.834;8.736;2023-10-19T07:37:30;14.13;;;4.22;;
28483;SDS011;15704;48.834;8.736;2023-10-19T07:39:58;7.70;;;3.58;;
28483;SDS011;15704;48.834;8.736;2023-10-19T07:42:24;8.55;;;3.80;;
28483;SDS011;15704;48.834;8.736;2023-10-19T07:44:52;7.72;;;3.45;;
28483;SDS011;15704;48.834;8.736;2023-10-19T07:47:18;8.18;;;3.13;;
28483;SDS011;15704;48.834;8.736;2023-10-19T07:49:45;9.57;;;3.20;;
28483;SDS011;15704;48.834;8.736;2023-10-19T07:52:14;5.28;;;2.40;;
28483;SDS011;15704;48.834;8.736;2023-10-19T07:54:40;9.30;;;2.97;;
28483;SDS011;15704;48.834;8.736;2023-10-19T07:57:07;8.02;;;2.75;;
28483;SDS011;15704;48.834;8.736;2023-10-19T07:59:34;5.43;;;2.90;;
28483;SDS011;15704;48.834;8.736;2023-10-19T08:02:01;4.20;;;2.20;;
28483;SDS011;15704;48.834;8.736;2023-10-19T08:04:29;6.93;;;2.10;;
28483;SDS011;15704;48.834;8.736;2023-10-19T08:06:57;3.45;;;2.15;;
28483;SDS011;15704;48.834;8.736;2023-10-19T08:09:24;4.30;;;1.90;;
28483;SDS011;15704;48.834;8.736;2023-10-19T08:11:57;3.92;;;1.70;;
28483;SDS011;15704;48.834;8.736;2023-10-19T08:14:27;5.30;;;1.70;;
28483;SDS011;15704;48.834;8.736;2023-10-19T08:16:54;5.68;;;2.17;;
28483;SDS011;15704;48.834;8.736;2023-10-19T08:19:23;5.82;;;2.03;;
28483;SDS011;15704;48.834;8.736;2023-10-19T08:21:49;4.25;;;1.90;;
28483;SDS011;15704;48.834;8.736;2023-10-19T08:24:16;3.35;;;2.20;;
28483;SDS011;15704;48.834;8.736;2023-10-19T08:26:47;4.50;;;2.15;;
28483;SDS011;15704;48.834;8.736;2023-10-19T08:29:13;5.03;;;1.83;;
28483;SDS011;15704;48.834;8.736;2023-10-19T08:31:41;7.93;;;2.20;;
28483;SDS011;15704;48.834;8.736;2023-10-19T08:34:08;3.42;;;1.80;;
28483;SDS011;15704;48.834;8.736;2023-10-19T08:36:38;4.75;;;1.73;;
28483;SDS011;15704;48.834;8.736;2023-10-19T08:39:06;4.93;;;1.67;;
28483;SDS011;15704;48.834;8.736;2023-10-19T08:41:34;9.35;;;2.35;;
28483;SDS011;15704;48.834;8.736;2023-10-19T08:44:05;3.67;;;1.70;;
28483;SDS011;15704;48.834;8.736;2023-10-19T08:46:39;4.95;;;1.52;;
28483;SDS011;15704;48.834;8.736;2023-10-19T08:49:13;3.60;;;1.90;;
28483;SDS011;15704;48.834;8.736;2023-10-19T08:51:45;4.35;;;1.67;;
28483;SDS011;15704;48.834;8.736;2023-10-19T08:54:13;6.07;;;2.40;;
28483;SDS011;15704;48.834;8.736;2023-10-19T08:56:41;4.95;;;2.03;;
28483;SDS011;15704;48.834;8.736;2023-10-19T08:59:08;4.05;;;1.75;;
28483;SDS011;15704;48.834;8.736;2023-10-19T09:01:38;6.10;;;2.08;;
28483;SDS011;15704;48.834;8.736;2023-10-19T09:04:05;6.22;;;1.98;;
28483;SDS011;15704;48.834;8.736;2023-10-19T09:06:35;3.22;;;1.55;;
28483;SDS011;15704;48.834;8.736;2023-10-19T09:09:08;5.82;;;1.58;;
28483;SDS011;15704;48.834;8.736;2023-10-19T09:11:51;3.05;;;1.83;;
28483;SDS011;15704;48.834;8.736;2023-10-19T09:14:31;3.08;;;1.42;;
28483;SDS011;15704;48.834;8.736;2023-10-19T09:17:09;5.63;;;1.55;;
28483;SDS011;15704;48.834;8.736;2023-10-19T09:19:40;2.83;;;1.52;;
28483;SDS011;15704;48.834;8.736;2023-10-19T09:22:09;3.50;;;1.33;;
28483;SDS011;15704;48.834;8.736;2023-10-19T09:24:45;4.05;;;1.48;;
28483;SDS011;15704;48.834;8.736;2023-10-19T09:27:12;1.48;;;1.13;;
28483;SDS011;15704;48.834;8.736;2023-10-19T09:29:43;3.40;;;1.30;;
28483;SDS011;15704;48.834;8.736;2023-10-19T09:32:11;2.30;;;1.55;;
28483;SDS011;15704;48.834;8.736;2023-10-19T09:34:40;3.75;;;2.10;;
28483;SDS011;15704;48.834;8.736;2023-10-19T09:37:11;3.00;;;1.77;;
28483;SDS011;15704;48.834;8.736;2023-10-19T09:39:39;2.05;;;1.60;;
28483;SDS011;15704;48.834;8.736;2023-10-19T09:42:09;6.00;;;1.70;;
28483;SDS011;15704;48.834;8.736;2023-10-19T09:44:41;3.47;;;1.58;;
28483;SDS011;15704;48.834;8.736;2023-10-19T09:47:26;2.67;;;1.50;;
28483;SDS011;15704;48.834;8.736;2023-10-19T09:50:02;3.38;;;1.88;;
28483;SDS011;15704;48.834;8.736;2023-10-19T09:52:36;5.97;;;1.48;;
28483;SDS011;15704;48.834;8.736;2023-10-19T09:55:22;2.50;;;1.55;;
28483;SDS011;15704;48.834;8.736;2023-10-19T09:58:12;2.00;;;1.52;;
28483;SDS011;15704;48.834;8.736;2023-10-19T10:00:48;4.50;;;1.50;;
28483;SDS011;15704;48.834;8.736;2023-10-19T10:06:15;6.78;;;1.88;;
28483;SDS011;15704;48.834;8.736;2023-10-19T10:08:44;7.07;;;1.80;;
28483;SDS011;15704;48.834;8.736;2023-10-19T10:11:18;4.25;;;1.98;;
28483;SDS011;15704;48.834;8.736;2023-10-19T10:13:54;3.28;;;1.70;;
28483;SDS011;15704;48.834;8.736;2023-10-19T10:16:23;2.67;;;1.73;;
28483;SDS011;15704;48.834;8.736;2023-10-19T10:18:53;3.58;;;1.65;;
28483;SDS011;15704;48.834;8.736;2023-10-19T10:21:28;5.47;;;1.88;;
28483;SDS011;15704;48.834;8.736;2023-10-19T10:23:57;1.67;;;1.23;;
28483;SDS011;15704;48.834;8.736;2023-10-19T10:26:27;1.48;;;1.25;;
28483;SDS011;15704;48.834;8.736;2023-10-19T10:29:14;5.45;;;1.85;;
28483;SDS011;15704;48.834;8.736;2023-10-19T10:31:48;5.57;;;1.80;;
28483;SDS011;15704;48.834;8.736;2023-10-19T10:37:04;3.75;;;2.20;;
28483;SDS011;15704;48.834;8.736;2023-10-19T10:39:34;11.10;;;1.70;;
28483;SDS011;15704;48.834;8.736;2023-10-19T10:42:06;4.85;;;1.85;;
28483;SDS011;15704;48.834;8.736;2023-10-19T10:47:19;4.75;;;2.13;;
28483;SDS011;15704;48.834;8.736;2023-10-19T10:49:56;3.05;;;1.73;;
28483;SDS011;15704;48.834;8.736;2023-10-19T10:54:59;7.45;;;2.28;;
28483;SDS011;15704;48.834;8.736;2023-10-19T10:57:33;3.85;;;1.98;;
28483;SDS011;15704;48.834;8.736;2023-10-19T11:00:04;4.13;;;2.08;;
28483;SDS011;15704;48.834;8.736;2023-10-19T11:02:59;5.78;;;2.20;;
28483;SDS011;15704;48.834;8.736;2023-10-19T11:05:27;4.68;;;1.73;;
28483;SDS011;15704;48.834;8.736;2023-10-19T11:08:07;4.43;;;1.60;;
28483;SDS011;15704;48.834;8.736;2023-10-19T11:10:40;5.60;;;2.15;;
28483;SDS011;15704;48.834;8.736;2023-10-19T11:13:09;4.22;;;1.80;;
28483;SDS011;15704;48.834;8.736;2023-10-19T11:15:38;7.85;;;2.03;;
28483;SDS011;15704;48.834;8.736;2023-10-19T11:18:06;3.17;;;2.05;;
28483;SDS011;15704;48.834;8.736;2023-10-19T11:20:36;6.80;;;2.90;;
28483;SDS011;15704;48.834;8.736;2023-10-19T11:23:03;5.13;;;2.45;;
28483;SDS011;15704;48.834;8.736;2023-10-19T11:25:31;6.32;;;2.70;;
28483;SDS011;15704;48.834;8.736;2023-10-19T11:27:59;7.65;;;2.17;;
28483;SDS011;15704;48.834;8.736;2023-10-19T11:30:27;3.15;;;2.00;;
28483;SDS011;15704;48.834;8.736;2023-10-19T11:32:57;5.85;;;2.03;;
28483;SDS011;15704;48.834;8.736;2023-10-19T11:35:29;7.77;;;2.13;;
28483;SDS011;15704;48.834;8.736;2023-10-19T11:37:57;8.70;;;2.17;;
28483;SDS011;15704;48.834;8.736;2023-10-19T11:40:26;5.13;;;2.13;;
28483;SDS011;15704;48.834;8.736;2023-10-19T11:42:53;7.55;;;2.30;;
28483;SDS011;15704;48.834;8.736;2023-10-19T11:45:25;6.68;;;3.30;;
28483;SDS011;15704;48.834;8.736;2023-10-19T11:47:52;9.00;;;3.17;;
28483;SDS011;15704;48.834;8.736;2023-10-19T11:50:21;6.45;;;2.53;;
28483;SDS011;15704;48.834;8.736;2023-10-19T11:52:47;4.90;;;2.22;;
28483;SDS011;15704;48.834;8.736;2023-10-19T11:55:15;4.22;;;2.30;;
28483;SDS011;15704;48.834;8.736;2023-10-19T11:57:42;5.20;;;2.30;;
28483;SDS011;15704;48.834;8.736;2023-10-19T12:00:11;6.32;;;2.60;;
28483;SDS011;15704;48.834;8.736;2023-10-19T12:02:48;5.68;;;2.22;;
28483;SDS011;15704;48.834;8.736;2023-10-19T12:05:15;8.95;;;2.08;;
28483;SDS011;15704;48.834;8.736;2023-10-19T12:07:42;7.18;;;2.30;;
28483;SDS011;15704;48.834;8.736;2023-10-19T12:10:11;5.20;;;2.25;;
28483;SDS011;15704;48.834;8.736;2023-10-19T12:12:38;3.67;;;2.22;;
28483;SDS011;15704;48.834;8.736;2023-10-19T12:15:23;5.03;;;2.35;;
28483;SDS011;15704;48.834;8.736;2023-10-19T12:17:52;4.15;;;2.35;;
28483;SDS011;15704;48.834;8.736;2023-10-19T12:20:21;5.38;;;2.22;;
28483;SDS011;15704;48.834;8.736;2023-10-19T12:22:50;9.98;;;3.42;;
28483;SDS011;15704;48.834;8.736;2023-10-19T12:25:21;4.20;;;2.20;;
28483;SDS011;15704;48.834;8.736;2023-10-19T12:28:01;9.02;;;3.13;;
28483;SDS011;15704;48.834;8.736;2023-10-19T12:30:30;5.95;;;2.05;;
28483;SDS011;15704;48.834;8.736;2023-10-19T12:33:05;6.85;;;3.55;;
28483;SDS011;15704;48.834;8.736;2023-10-19T12:35:38;4.32;;;2.30;;
28483;SDS011;15704;48.834;8.736;2023-10-19T12:38:12;4.75;;;2.22;;
28483;SDS011;15704;48.834;8.736;2023-10-19T12:40:46;3.08;;;1.67;;
28483;SDS011;15704;48.834;8.736;2023-10-19T12:43:14;3.63;;;2.15;;
28483;SDS011;15704;48.834;8.736;2023-10-19T12:45:41;2.72;;;1.70;;
28483;SDS011;15704;48.834;8.736;2023-10-19T12:48:10;3.22;;;1.92;;
28483;SDS011;15704;48.834;8.736;2023-10-19T12:50:38;3.40;;;1.92;;
28483;SDS011;15704;48.834;8.736;2023-10-19T12:53:05;6.10;;;2.33;;
28483;SDS011;15704;48.834;8.736;2023-10-19T12:55:33;5.55;;;1.90;;
28483;SDS011;15704;48.834;8.736;2023-10-19T12:58:01;3.72;;;1.95;;
28483;SDS011;15704;48.834;8.736;2023-10-19T13:00:35;3.95;;;2.05;;
28483;SDS011;15704;48.834;8.736;2023-10-19T13:03:05;3.88;;;2.00;;
28483;SDS011;15704;48.834;8.736;2023-10-19T13:05:33;5.88;;;1.98;;
28483;SDS011;15704;48.834;8.736;2023-10-19T13:08:01;3.60;;;2.00;;
28483;SDS011;15704;48.834;8.736;2023-10-19T13:10:30;11.23;;;2.05;;
28483;SDS011;15704;48.834;8.736;2023-10-19T13:15:32;7.03;;;2.20;;
28483;SDS011;15704;48.834;8.736;2023-10-19T13:18:04;3.65;;;1.92;;
28483;SDS011;15704;48.834;8.736;2023-10-19T13:20:33;2.53;;;1.80;;
28483;SDS011;15704;48.834;8.736;2023-10-19T13:23:01;4.55;;;2.38;;
28483;SDS011;15704;48.834;8.736;2023-10-19T13:25:32;2.20;;;2.00;;
28483;SDS011;15704;48.834;8.736;2023-10-19T13:28:08;3.72;;;2.08;;
28483;SDS011;15704;48.834;8.736;2023-10-19T13:30:36;3.75;;;2.35;;
28483;SDS011;15704;48.834;8.736;2023-10-19T13:33:08;6.05;;;2.35;;
28483;SDS011;15704;48.834;8.736;2023-10-19T13:35:36;3.85;;;2.60;;
28483;SDS011;15704;48.834;8.736;2023-10-19T13:38:05;6.03;;;2.15;;
28483;SDS011;15704;48.834;8.736;2023-10-19T13:40:32;5.80;;;2.20;;
28483;SDS011;15704;48.834;8.736;2023-10-19T13:43:04;5.65;;;4.00;;
28483;SDS011;15704;48.834;8.736;2023-10-19T13:45:33;12.75;;;6.95;;
28483;SDS011;15704;48.834;8.736;2023-10-19T13:48:04;5.30;;;4.03;;
28483;SDS011;15704;48.834;8.736;2023-10-19T13:50:32;6.88;;;3.72;;
28483;SDS011;15704;48.834;8.736;2023-10-19T13:53:00;5.82;;;2.60;;
28483;SDS011;15704;48.834;8.736;2023-10-19T13:55:29;4.07;;;2.60;;
28483;SDS011;15704;48.834;8.736;2023-10-19T13:57:57;5.57;;;2.80;;
28483;SDS011;15704;48.834;8.736;2023-10-19T14:00:24;2.85;;;2.10;;
28483;SDS011;15704;48.834;8.736;2023-10-19T14:02:56;5.70;;;4.60;;
28483;SDS011;15704;48.834;8.736;2023-10-19T14:05:25;4.07;;;2.28;;
28483;SDS011;15704;48.834;8.736;2023-10-19T14:07:52;8.40;;;2.72;;
28483;SDS011;15704;48.834;8.736;2023-10-19T14:10:19;7.90;;;2.50;;
28483;SDS011;15704;48.834;8.736;2023-10-19T14:12:48;3.30;;;2.80;;
28483;SDS011;15704;48.834;8.736;2023-10-19T14:15:20;5.88;;;2.92;;
28483;SDS011;15704;48.834;8.736;2023-10-19T14:17:47;8.93;;;3.88;;
28483;SDS011;15704;48.834;8.736;2023-10-19T14:20:17;19.63;;;12.40;;
28483;SDS011;15704;48.834;8.736;2023-10-19T14:22:45;43.67;;;3.70;;
28483;SDS011;15704;48.834;8.736;2023-10-19T14:25:14;22.65;;;3.08;;
28483;SDS011;15704;48.834;8.736;2023-10-19T14:27:42;8.30;;;3.20;;
28483;SDS011;15704;48.834;8.736;2023-10-19T14:30:11;9.43;;;4.43;;
28483;SDS011;15704;48.834;8.736;2023-10-19T14:32:43;14.48;;;3.70;;
28483;SDS011;15704;48.834;8.736;2023-10-19T14:35:11;25.58;;;2.97;;
28483;SDS011;15704;48.834;8.736;2023-10-19T14:37:44;3.15;;;2.00;;
28483;SDS011;15704;48.834;8.736;2023-10-19T14:40:14;5.22;;;2.22;;
28483;SDS011;15704;48.834;8.736;2023-10-19T14:42:43;2.95;;;1.90;;
28483;SDS011;15704;48.834;8.736;2023-10-19T14:45:10;4.72;;;1.70;;
28483;SDS011;15704;48.834;8.736;2023-10-19T14:47:40;3.95;;;1.83;;
28483;SDS011;15704;48.834;8.736;2023-10-19T14:50:10;4.30;;;3.42;;
28483;SDS011;15704;48.834;8.736;2023-10-19T14:52:37;5.18;;;2.20;;
28483;SDS011;15704;48.834;8.736;2023-10-19T14:55:08;3.97;;;1.73;;
28483;SDS011;15704;48.834;8.736;2023-10-19T14:57:39;12.43;;;2.60;;
28483;SDS011;15704;48.834;8.736;2023-10-19T15:00:08;4.03;;;3.38;;
28483;SDS011;15704;48.834;8.736;2023-10-19T15:02:51;4.85;;;2.83;;
28483;SDS011;15704;48.834;8.736;2023-10-19T15:05:23;3.22;;;2.47;;
28483;SDS011;15704;48.834;8.736;2023-10-19T15:07:52;4.25;;;2.05;;
28483;SDS011;15704;48.834;8.736;2023-10-19T15:10:24;3.33;;;2.63;;
28483;SDS011;15704;48.834;8.736;2023-10-19T15:12:52;5.15;;;2.50;;
28483;SDS011;15704;48.834;8.736;2023-10-19T15:15:20;7.57;;;2.88;;
28483;SDS011;15704;48.834;8.736;2023-10-19T15:17:48;10.68;;;2.95;;
28483;SDS011;15704;48.834;8.736;2023-10-19T15:20:23;5.28;;;2.88;;
28483;SDS011;15704;48.834;8.736;2023-10-19T15:22:52;3.75;;;3.00;;
28483;SDS011;15704;48.834;8.736;2023-10-19T15:25:20;4.75;;;2.70;;
28483;SDS011;15704;48.834;8.736;2023-10-19T15:27:50;5.30;;;3.05;;
28483;SDS011;15704;48.834;8.736;2023-10-19T15:30:18;4.30;;;3.15;;
28483;SDS011;15704;48.834;8.736;2023-10-19T15:32:46;3.25;;;2.80;;
28483;SDS011;15704;48.834;8.736;2023-10-19T15:35:15;2.95;;;2.50;;